sensor_id;sensor_type;location;lat;lon;timestamp;pressure;altitude;pressure_sealevel;temperature;humidity
13348;BME280;6743;49.934;9.138;2022-10-13T00:00:05;101002.19;;;11.40;100.00
13348;BME280;6743;49.934;9.138;2022-10-13T00:02:31;100992.84;;;11.36;100.00
13348;BME280;6743;49.934;9.138;2022-10-13T00:04:57;100994.84;;;11.34;100.00
13348;BME280;6743;49.934;9.138;2022-10-13T00:07:23;100997.09;;;11.29;100.00
13348;BME280;6743;49.934;9.138;2022-10-13T00:09:50;100996.56;;;11.25;100.00
13348;BME280;6743;49.934;9.138;2022-10-13T00:12:16;100989.03;;;11.21;100.00
13348;BME280;6743;49.934;9.138;2022-10-13T00:14:42;100982.22;;;11.18;100.00
13348;BME280;6743;49.934;9.138;2022-10-13T00:17:08;100986.16;;;11.14;100.00
13348;BME280;6743;49.934;9.138;2022-10-13T00:19:34;100980.84;;;11.14;100.00
13348;BME280;6743;49.934;9.138;2022-10-13T00:22:01;100976.00;;;11.10;100.00
13348;BME280;6743;49.934;9.138;2022-10-13T00:24:26;100978.94;;;11.06;100.00
13348;BME280;6743;49.934;9.138;2022-10-13T00:26:53;100983.56;;;11.04;100.00
13348;BME280;6743;49.934;9.138;2022-10-13T00:29:19;100982.03;;;11.02;100.00
13348;BME280;6743;49.934;9.138;2022-10-13T00:31:45;100985.81;;;10.99;100.00
13348;BME280;6743;49.934;9.138;2022-10-13T00:34:11;100986.97;;;10.97;100.00
13348;BME280;6743;49.934;9.138;2022-10-13T00:36:37;100980.13;;;10.94;100.00
13348;BME280;6743;49.934;9.138;2022-10-13T00:39:03;100991.72;;;10.93;100.00
13348;BME280;6743;49.934;9.138;2022-10-13T00:41:29;100984.94;;;10.91;100.00
13348;BME280;6743;49.934;9.138;2022-10-13T00:43:58;100984.09;;;10.90;100.00
13348;BME280;6743;49.934;9.138;2022-10-13T00:46:26;100988.56;;;10.90;100.00
13348;BME280;6743;49.934;9.138;2022-10-13T00:48:52;100986.19;;;10.87;100.00
13348;BME280;6743;49.934;9.138;2022-10-13T00:51:23;100989.69;;;10.87;100.00
13348;BME280;6743;49.934;9.138;2022-10-13T00:53:51;100984.38;;;10.87;100.00
13348;BME280;6743;49.934;9.138;2022-10-13T00:56:20;100973.38;;;10.82;100.00
13348;BME280;6743;49.934;9.138;2022-10-13T00:58:47;100985.34;;;10.86;100.00
13348;BME280;6743;49.934;9.138;2022-10-13T01:01:15;100988.19;;;10.85;100.00
13348;BME280;6743;49.934;9.138;2022-10-13T01:03:41;100988.31;;;10.83;100.00
13348;BME280;6743;49.934;9.138;2022-10-13T01:06:08;100994.47;;;10.84;100.00
13348;BME280;6743;49.934;9.138;2022-10-13T01:08:34;100994.59;;;10.82;100.00
13348;BME280;6743;49.934;9.138;2022-10-13T01:11:09;100989.31;;;10.82;100.00
13348;BME280;6743;49.934;9.138;2022-10-13T01:13:41;100994.59;;;10.82;100.00
13348;BME280;6743;49.934;9.138;2022-10-13T01:16:15;100980.63;;;10.80;100.00
13348;BME280;6743;49.934;9.138;2022-10-13T01:18:52;100993.78;;;10.82;100.00
13348;BME280;6743;49.934;9.138;2022-10-13T01:21:25;100988.47;;;10.82;100.00
13348;BME280;6743;49.934;9.138;2022-10-13T01:24:27;100983.16;;;10.82;100.00
13348;BME280;6743;49.934;9.138;2022-10-13T01:27:12;100981.19;;;10.84;100.00
13348;BME280;6743;49.934;9.138;2022-10-13T01:30:04;100978.53;;;10.84;100.00
13348;BME280;6743;49.934;9.138;2022-10-13T01:32:40;100969.75;;;10.83;100.00
13348;BME280;6743;49.934;9.138;2022-10-13T01:35:11;100960.09;;;10.82;100.00
13348;BME280;6743;49.934;9.138;2022-10-13T01:37:44;100961.78;;;10.83;100.00
13348;BME280;6743;49.934;9.138;2022-10-13T01:40:17;100957.16;;;10.85;100.00
13348;BME280;6743;49.934;9.138;2022-10-13T01:42:50;100959.97;;;10.84;100.00
13348;BME280;6743;49.934;9.138;2022-10-13T01:45:22;100963.72;;;10.81;100.00
13348;BME280;6743;49.934;9.138;2022-10-13T01:47:51;100969.19;;;10.80;100.00
13348;BME280;6743;49.934;9.138;2022-10-13T01:50:18;100967.50;;;10.79;100.00
13348;BME280;6743;49.934;9.138;2022-10-13T01:52:46;100968.34;;;10.79;100.00
13348;BME280;6743;49.934;9.138;2022-10-13T01:55:12;100973.50;;;10.81;100.00
13348;BME280;6743;49.934;9.138;2022-10-13T01:57:40;100967.38;;;10.80;100.00
13348;BME280;6743;49.934;9.138;2022-10-13T02:00:09;100956.63;;;10.82;100.00
13348;BME280;6743;49.934;9.138;2022-10-13T02:02:42;100953.13;;;10.81;100.00
13348;BME280;6743;49.934;9.138;2022-10-13T02:05:18;100957.44;;;10.82;100.00
13348;BME280;6743;49.934;9.138;2022-10-13T02:07:53;100959.97;;;10.84;100.00
13348;BME280;6743;49.934;9.138;2022-10-13T02:10:24;100954.66;;;10.84;100.00
13348;BME280;6743;49.934;9.138;2022-10-13T02:12:57;100955.50;;;10.84;100.00
13348;BME280;6743;49.934;9.138;2022-10-13T02:15:33;100962.63;;;10.84;100.00
13348;BME280;6743;49.934;9.138;2022-10-13T02:18:10;100958.97;;;10.85;100.00
13348;BME280;6743;49.934;9.138;2022-10-13T02:20:39;100962.47;;;10.85;100.00
13348;BME280;6743;49.934;9.138;2022-10-13T02:23:08;100955.31;;;10.86;100.00
13348;BME280;6743;49.934;9.138;2022-10-13T02:25:35;100956.31;;;10.85;100.00
13348;BME280;6743;49.934;9.138;2022-10-13T02:28:02;100944.88;;;10.84;100.00
13348;BME280;6743;49.934;9.138;2022-10-13T02:30:30;100938.03;;;10.82;100.00
13348;BME280;6743;49.934;9.138;2022-10-13T02:32:57;100939.56;;;10.84;100.00
13348;BME280;6743;49.934;9.138;2022-10-13T02:35:24;100937.06;;;10.83;100.00
13348;BME280;6743;49.934;9.138;2022-10-13T02:37:50;100932.44;;;10.85;100.00
13348;BME280;6743;49.934;9.138;2022-10-13T02:40:16;100921.28;;;10.81;100.00
13348;BME280;6743;49.934;9.138;2022-10-13T02:42:43;100927.97;;;10.85;100.00
13348;BME280;6743;49.934;9.138;2022-10-13T02:45:09;100922.09;;;10.82;100.00
13348;BME280;6743;49.934;9.138;2022-10-13T02:47:35;100916.09;;;10.80;100.00
13348;BME280;6743;49.934;9.138;2022-10-13T02:50:02;100920.44;;;10.81;100.00
13348;BME280;6743;49.934;9.138;2022-10-13T02:52:28;100925.03;;;10.79;100.00
13348;BME280;6743;49.934;9.138;2022-10-13T02:54:54;100927.88;;;10.77;100.00
13348;BME280;6743;49.934;9.138;2022-10-13T02:57:20;100921.03;;;10.75;100.00
13348;BME280;6743;49.934;9.138;2022-10-13T02:59:47;100922.00;;;10.74;100.00
13348;BME280;6743;49.934;9.138;2022-10-13T03:02:13;100919.50;;;10.72;100.00
13348;BME280;6743;49.934;9.138;2022-10-13T03:04:39;100916.03;;;10.72;100.00
13348;BME280;6743;49.934;9.138;2022-10-13T03:07:05;100914.19;;;10.72;100.00
13348;BME280;6743;49.934;9.138;2022-10-13T03:09:32;100912.38;;;10.73;100.00
13348;BME280;6743;49.934;9.138;2022-10-13T03:11:58;100913.38;;;10.72;100.00
13348;BME280;6743;49.934;9.138;2022-10-13T03:14:24;100930.94;;;10.73;100.00
13348;BME280;6743;49.934;9.138;2022-10-13T03:16:50;100918.37;;;10.75;100.00
13348;BME280;6743;49.934;9.138;2022-10-13T03:19:16;100919.69;;;10.71;100.00
13348;BME280;6743;49.934;9.138;2022-10-13T03:21:42;100920.06;;;10.76;100.00
13348;BME280;6743;49.934;9.138;2022-10-13T03:24:08;100915.72;;;10.75;100.00
13348;BME280;6743;49.934;9.138;2022-10-13T03:26:34;100917.69;;;10.73;100.00
13348;BME280;6743;49.934;9.138;2022-10-13T03:29:00;100914.38;;;10.71;100.00
13348;BME280;6743;49.934;9.138;2022-10-13T03:31:27;100920.66;;;10.70;100.00
13348;BME280;6743;49.934;9.138;2022-10-13T03:33:53;100925.81;;;10.71;100.00
13348;BME280;6743;49.934;9.138;2022-10-13T03:36:19;100924.16;;;10.70;100.00
13348;BME280;6743;49.934;9.138;2022-10-13T03:38:45;100922.31;;;10.71;100.00
13348;BME280;6743;49.934;9.138;2022-10-13T03:41:13;100914.13;;;10.64;100.00
13348;BME280;6743;49.934;9.138;2022-10-13T03:43:40;100921.91;;;10.65;100.00
13348;BME280;6743;49.934;9.138;2022-10-13T03:46:08;100922.75;;;10.66;100.00
13348;BME280;6743;49.934;9.138;2022-10-13T03:48:35;100921.91;;;10.65;100.00
13348;BME280;6743;49.934;9.138;2022-10-13T03:51:03;100920.28;;;10.64;100.00
13348;BME280;6743;49.934;9.138;2022-10-13T03:53:29;100920.28;;;10.64;100.00
13348;BME280;6743;49.934;9.138;2022-10-13T03:55:56;100915.94;;;10.63;100.00
13348;BME280;6743;49.934;9.138;2022-10-13T03:58:23;100920.28;;;10.64;100.00
13348;BME280;6743;49.934;9.138;2022-10-13T04:00:51;100916.62;;;10.65;100.00
13348;BME280;6743;49.934;9.138;2022-10-13T04:03:17;100909.50;;;10.66;100.00
13348;BME280;6743;49.934;9.138;2022-10-13T04:05:43;100912.97;;;10.66;100.00
13348;BME280;6743;49.934;9.138;2022-10-13T04:08:09;100908.28;;;10.60;100.00
13348;BME280;6743;49.934;9.138;2022-10-13T04:10:36;100904.63;;;10.61;100.00
13348;BME280;6743;49.934;9.138;2022-10-13T04:13:03;100910.31;;;10.66;100.00
13348;BME280;6743;49.934;9.138;2022-10-13T04:15:30;100918.28;;;10.66;100.00
13348;BME280;6743;49.934;9.138;2022-10-13T04:17:56;100913.28;;;10.63;100.00
13348;BME280;6743;49.934;9.138;2022-10-13T04:20:22;100917.75;;;10.63;100.00
13348;BME280;6743;49.934;9.138;2022-10-13T04:22:48;100923.06;;;10.63;100.00
13348;BME280;6743;49.934;9.138;2022-10-13T04:25:14;100922.38;;;10.61;100.00
13348;BME280;6743;49.934;9.138;2022-10-13T04:27:40;100936.62;;;10.60;100.00
13348;BME280;6743;49.934;9.138;2022-10-13T04:30:07;100935.78;;;10.59;100.00
13348;BME280;6743;49.934;9.138;2022-10-13T04:32:33;100933.13;;;10.59;100.00
13348;BME280;6743;49.934;9.138;2022-10-13T04:35:00;100927.97;;;10.58;100.00
13348;BME280;6743;49.934;9.138;2022-10-13T04:37:26;100937.59;;;10.59;100.00
13348;BME280;6743;49.934;9.138;2022-10-13T04:39:52;100931.63;;;10.57;100.00
13348;BME280;6743;49.934;9.138;2022-10-13T04:42:18;100934.28;;;10.57;100.00
13348;BME280;6743;49.934;9.138;2022-10-13T04:44:44;100939.72;;;10.55;100.00
13348;BME280;6743;49.934;9.138;2022-10-13T04:47:10;100932.75;;;10.54;100.00
13348;BME280;6743;49.934;9.138;2022-10-13T04:49:36;100934.72;;;10.52;100.00
13348;BME280;6743;49.934;9.138;2022-10-13T04:52:03;100932.75;;;10.54;100.00
13348;BME280;6743;49.934;9.138;2022-10-13T04:54:28;100937.06;;;10.55;100.00
13348;BME280;6743;49.934;9.138;2022-10-13T04:56:54;100929.97;;;10.56;100.00
13348;BME280;6743;49.934;9.138;2022-10-13T04:59:20;100931.78;;;10.55;100.00
13348;BME280;6743;49.934;9.138;2022-10-13T05:01:46;100931.91;;;10.54;100.00
13348;BME280;6743;49.934;9.138;2022-10-13T05:04:12;100924.78;;;10.54;100.00
13348;BME280;6743;49.934;9.138;2022-10-13T05:06:40;100928.28;;;10.55;100.00
13348;BME280;6743;49.934;9.138;2022-10-13T05:09:08;100919.63;;;10.53;100.00
13348;BME280;6743;49.934;9.138;2022-10-13T05:11:39;100922.97;;;10.55;100.00
13348;BME280;6743;49.934;9.138;2022-10-13T05:14:05;100922.00;;;10.56;100.00
13348;BME280;6743;49.934;9.138;2022-10-13T05:16:31;100914.03;;;10.56;100.00
13348;BME280;6743;49.934;9.138;2022-10-13T05:18:57;100917.53;;;10.56;100.00
13348;BME280;6743;49.934;9.138;2022-10-13T05:21:24;100920.19;;;10.56;100.00
13348;BME280;6743;49.934;9.138;2022-10-13T05:23:51;100913.91;;;10.57;100.00
13348;BME280;6743;49.934;9.138;2022-10-13T05:26:21;100911.37;;;10.56;100.00
13348;BME280;6743;49.934;9.138;2022-10-13T05:28:48;100906.91;;;10.56;100.00
13348;BME280;6743;49.934;9.138;2022-10-13T05:31:16;100907.75;;;10.57;100.00
13348;BME280;6743;49.934;9.138;2022-10-13T05:33:43;100890.44;;;10.53;100.00
13348;BME280;6743;49.934;9.138;2022-10-13T05:36:10;100906.06;;;10.56;100.00
13348;BME280;6743;49.934;9.138;2022-10-13T05:38:37;100903.56;;;10.54;100.00
13348;BME280;6743;49.934;9.138;2022-10-13T05:41:04;100894.63;;;10.55;100.00
13348;BME280;6743;49.934;9.138;2022-10-13T05:43:31;100895.47;;;10.56;100.00
13348;BME280;6743;49.934;9.138;2022-10-13T05:45:57;100899.94;;;10.55;100.00
13348;BME280;6743;49.934;9.138;2022-10-13T05:48:23;100894.06;;;10.52;100.00
13348;BME280;6743;49.934;9.138;2022-10-13T05:50:50;100894.25;;;10.50;100.00
13348;BME280;6743;49.934;9.138;2022-10-13T05:53:16;100895.22;;;10.49;100.00
13348;BME280;6743;49.934;9.138;2022-10-13T05:55:42;100901.50;;;10.48;100.00
13348;BME280;6743;49.934;9.138;2022-10-13T05:58:08;100893.00;;;10.45;100.00
13348;BME280;6743;49.934;9.138;2022-10-13T06:00:35;100886.84;;;10.44;100.00
13348;BME280;6743;49.934;9.138;2022-10-13T06:03:03;100891.50;;;10.42;100.00
13348;BME280;6743;49.934;9.138;2022-10-13T06:05:31;100893.44;;;10.40;100.00
13348;BME280;6743;49.934;9.138;2022-10-13T06:07:58;100894.44;;;10.39;100.00
13348;BME280;6743;49.934;9.138;2022-10-13T06:10:25;100886.62;;;10.38;100.00
13348;BME280;6743;49.934;9.138;2022-10-13T06:12:51;100885.25;;;10.34;100.00
13348;BME280;6743;49.934;9.138;2022-10-13T06:15:17;100891.25;;;10.36;100.00
13348;BME280;6743;49.934;9.138;2022-10-13T06:17:43;100881.47;;;10.36;100.00
13348;BME280;6743;49.934;9.138;2022-10-13T06:20:10;100878.00;;;10.36;100.00
13348;BME280;6743;49.934;9.138;2022-10-13T06:22:36;100883.28;;;10.36;100.00
13348;BME280;6743;49.934;9.138;2022-10-13T06:25:04;100877.84;;;10.37;100.00
13348;BME280;6743;49.934;9.138;2022-10-13T06:27:30;100875.19;;;10.37;100.00
13348;BME280;6743;49.934;9.138;2022-10-13T06:29:56;100872.56;;;10.37;100.00
13348;BME280;6743;49.934;9.138;2022-10-13T06:32:23;100871.53;;;10.38;100.00
13348;BME280;6743;49.934;9.138;2022-10-13T06:34:50;100863.44;;;10.40;100.00
13348;BME280;6743;49.934;9.138;2022-10-13T06:37:16;100875.59;;;10.42;100.00
13348;BME280;6743;49.934;9.138;2022-10-13T06:39:42;100877.09;;;10.45;100.00
13348;BME280;6743;49.934;9.138;2022-10-13T06:42:08;100874.44;;;10.45;100.00
13348;BME280;6743;49.934;9.138;2022-10-13T06:44:33;100881.25;;;10.47;100.00
13348;BME280;6743;49.934;9.138;2022-10-13T06:46:59;100878.47;;;10.49;100.00
13348;BME280;6743;49.934;9.138;2022-10-13T06:49:27;100876.66;;;10.49;100.00
13348;BME280;6743;49.934;9.138;2022-10-13T06:51:54;100886.94;;;10.52;100.00
13348;BME280;6743;49.934;9.138;2022-10-13T06:54:20;100889.59;;;10.52;100.00
13348;BME280;6743;49.934;9.138;2022-10-13T06:56:46;100885.13;;;10.53;100.00
13348;BME280;6743;49.934;9.138;2022-10-13T06:59:12;100880.66;;;10.53;100.00
13348;BME280;6743;49.934;9.138;2022-10-13T07:01:38;100873.41;;;10.55;100.00
13348;BME280;6743;49.934;9.138;2022-10-13T07:04:04;100871.59;;;10.56;100.00
13348;BME280;6743;49.934;9.138;2022-10-13T07:06:30;100870.59;;;10.57;100.00
13348;BME280;6743;49.934;9.138;2022-10-13T07:08:57;100867.94;;;10.57;100.00
13348;BME280;6743;49.934;9.138;2022-10-13T07:11:23;100864.16;;;10.59;100.00
13348;BME280;6743;49.934;9.138;2022-10-13T07:13:49;100870.00;;;10.63;100.00
13348;BME280;6743;49.934;9.138;2022-10-13T07:16:15;100859.06;;;10.66;100.00
13348;BME280;6743;49.934;9.138;2022-10-13T07:18:41;100864.25;;;10.68;100.00
13348;BME280;6743;49.934;9.138;2022-10-13T07:21:08;100862.97;;;10.72;100.00
13348;BME280;6743;49.934;9.138;2022-10-13T07:23:34;100867.81;;;10.76;100.00
13348;BME280;6743;49.934;9.138;2022-10-13T07:26:00;100870.97;;;10.80;100.00
13348;BME280;6743;49.934;9.138;2022-10-13T07:28:26;100874.31;;;10.82;100.00
13348;BME280;6743;49.934;9.138;2022-10-13T07:30:52;100865.25;;;10.84;100.00
13348;BME280;6743;49.934;9.138;2022-10-13T07:33:19;100868.41;;;10.88;100.00
13348;BME280;6743;49.934;9.138;2022-10-13T07:35:45;100870.91;;;10.89;100.00
13348;BME280;6743;49.934;9.138;2022-10-13T07:38:11;100874.09;;;10.93;100.00
13348;BME280;6743;49.934;9.138;2022-10-13T07:40:39;100869.31;;;10.96;100.00
13348;BME280;6743;49.934;9.138;2022-10-13T07:43:05;100864.53;;;11.00;100.00
13348;BME280;6743;49.934;9.138;2022-10-13T07:45:32;100848.31;;;11.03;100.00
13348;BME280;6743;49.934;9.138;2022-10-13T07:47:57;100844.19;;;11.09;100.00
13348;BME280;6743;49.934;9.138;2022-10-13T07:50:23;100842.38;;;11.09;100.00
13348;BME280;6743;49.934;9.138;2022-10-13T07:52:49;100860.06;;;11.18;100.00
13348;BME280;6743;49.934;9.138;2022-10-13T07:55:15;100857.06;;;11.21;100.00
13348;BME280;6743;49.934;9.138;2022-10-13T07:57:41;100845.19;;;11.25;100.00
13348;BME280;6743;49.934;9.138;2022-10-13T08:00:09;100843.03;;;11.29;100.00
13348;BME280;6743;49.934;9.138;2022-10-13T08:02:36;100847.06;;;11.33;100.00
13348;BME280;6743;49.934;9.138;2022-10-13T08:05:02;100838.62;;;11.37;100.00
13348;BME280;6743;49.934;9.138;2022-10-13T08:07:29;100841.78;;;11.41;100.00
13348;BME280;6743;49.934;9.138;2022-10-13T08:09:54;100838.66;;;11.45;100.00
13348;BME280;6743;49.934;9.138;2022-10-13T08:12:20;100841.84;;;11.49;100.00
13348;BME280;6743;49.934;9.138;2022-10-13T08:14:49;100852.84;;;11.54;100.00
13348;BME280;6743;49.934;9.138;2022-10-13T08:17:15;100847.34;;;11.56;100.00
13348;BME280;6743;49.934;9.138;2022-10-13T08:19:41;100852.38;;;11.59;100.00
13348;BME280;6743;49.934;9.138;2022-10-13T08:22:08;100848.56;;;11.61;100.00
13348;BME280;6743;49.934;9.138;2022-10-13T08:24:34;100850.06;;;11.64;100.00
13348;BME280;6743;49.934;9.138;2022-10-13T08:27:00;100839.78;;;11.69;100.00
13348;BME280;6743;49.934;9.138;2022-10-13T08:29:26;100844.81;;;11.72;100.00
13348;BME280;6743;49.934;9.138;2022-10-13T08:31:52;100850.50;;;11.77;100.00
13348;BME280;6743;49.934;9.138;2022-10-13T08:34:20;100851.88;;;11.81;100.00
13348;BME280;6743;49.934;9.138;2022-10-13T08:36:46;100853.22;;;11.85;100.00
13348;BME280;6743;49.934;9.138;2022-10-13T08:39:12;100854.41;;;11.91;100.00
13348;BME280;6743;49.934;9.138;2022-10-13T08:41:40;100860.94;;;11.96;100.00
13348;BME280;6743;49.934;9.138;2022-10-13T08:44:16;100854.13;;;12.02;100.00
13348;BME280;6743;49.934;9.138;2022-10-13T08:46:48;100842.03;;;12.07;100.00
13348;BME280;6743;49.934;9.138;2022-10-13T08:49:16;100852.00;;;12.13;100.00
13348;BME280;6743;49.934;9.138;2022-10-13T08:51:43;100842.72;;;12.17;100.00
13348;BME280;6743;49.934;9.138;2022-10-13T08:54:11;100842.41;;;12.20;100.00
13348;BME280;6743;49.934;9.138;2022-10-13T08:56:38;100842.09;;;12.23;100.00
13348;BME280;6743;49.934;9.138;2022-10-13T08:59:04;100857.56;;;12.28;100.00
13348;BME280;6743;49.934;9.138;2022-10-13T09:01:32;100857.06;;;12.33;100.00
13348;BME280;6743;49.934;9.138;2022-10-13T09:04:15;100851.44;;;12.36;100.00
13348;BME280;6743;49.934;9.138;2022-10-13T09:06:45;100847.97;;;12.43;100.00
13348;BME280;6743;49.934;9.138;2022-10-13T09:09:14;100854.13;;;12.52;100.00
13348;BME280;6743;49.934;9.138;2022-10-13T09:11:42;100858.81;;;12.58;100.00
13348;BME280;6743;49.934;9.138;2022-10-13T09:14:10;100860.81;;;12.64;100.00
13348;BME280;6743;49.934;9.138;2022-10-13T09:16:38;100863.81;;;12.69;100.00
13348;BME280;6743;49.934;9.138;2022-10-13T09:19:20;100857.16;;;12.73;100.00
13348;BME280;6743;49.934;9.138;2022-10-13T09:21:47;100855.03;;;12.77;100.00
13348;BME280;6743;49.934;9.138;2022-10-13T09:24:15;100859.84;;;12.81;100.00
13348;BME280;6743;49.934;9.138;2022-10-13T09:26:42;100862.50;;;12.81;100.00
13348;BME280;6743;49.934;9.138;2022-10-13T09:29:09;100859.69;;;12.83;100.00
13348;BME280;6743;49.934;9.138;2022-10-13T09:31:35;100852.38;;;12.85;100.00
13348;BME280;6743;49.934;9.138;2022-10-13T09:34:12;100863.34;;;12.90;100.00
13348;BME280;6743;49.934;9.138;2022-10-13T09:36:38;100858.72;;;12.92;100.00
13348;BME280;6743;49.934;9.138;2022-10-13T09:39:11;100840.91;;;12.92;100.00
13348;BME280;6743;49.934;9.138;2022-10-13T09:41:39;100842.91;;;12.98;100.00
13348;BME280;6743;49.934;9.138;2022-10-13T09:44:16;100843.22;;;13.03;100.00
13348;BME280;6743;49.934;9.138;2022-10-13T09:46:46;100835.22;;;13.12;100.00
13348;BME280;6743;49.934;9.138;2022-10-13T09:49:28;100838.94;;;13.19;100.00
13348;BME280;6743;49.934;9.138;2022-10-13T09:52:00;100839.09;;;13.25;100.00
13348;BME280;6743;49.934;9.138;2022-10-13T09:54:39;100845.41;;;13.32;100.00
13348;BME280;6743;49.934;9.138;2022-10-13T09:57:13;100858.06;;;13.38;100.00
13348;BME280;6743;49.934;9.138;2022-10-13T09:59:44;100865.06;;;13.39;100.00
13348;BME280;6743;49.934;9.138;2022-10-13T10:02:19;100855.72;;;13.44;100.00
13348;BME280;6743;49.934;9.138;2022-10-13T10:04:48;100873.22;;;13.46;100.00
13348;BME280;6743;49.934;9.138;2022-10-13T10:07:18;100869.03;;;13.44;100.00
13348;BME280;6743;49.934;9.138;2022-10-13T10:09:50;100863.72;;;13.44;100.00
13348;BME280;6743;49.934;9.138;2022-10-13T10:12:21;100869.03;;;13.44;100.00
13348;BME280;6743;49.934;9.138;2022-10-13T10:14:48;100867.37;;;13.43;100.00
13348;BME280;6743;49.934;9.138;2022-10-13T10:17:20;100865.91;;;13.40;100.00
13348;BME280;6743;49.934;9.138;2022-10-13T10:20:00;100864.22;;;13.39;100.00
13348;BME280;6743;49.934;9.138;2022-10-13T10:22:36;100866.22;;;13.37;100.00
13348;BME280;6743;49.934;9.138;2022-10-13T10:25:18;100859.22;;;13.36;100.00
13348;BME280;6743;49.934;9.138;2022-10-13T10:27:53;100853.06;;;13.35;100.00
13348;BME280;6743;49.934;9.138;2022-10-13T10:30:22;100849.56;;;13.35;100.00
13348;BME280;6743;49.934;9.138;2022-10-13T10:32:51;100861.88;;;13.36;100.00
13348;BME280;6743;49.934;9.138;2022-10-13T10:35:23;100853.87;;;13.36;100.00
13348;BME280;6743;49.934;9.138;2022-10-13T10:38:04;100837.72;;;13.37;100.00
13348;BME280;6743;49.934;9.138;2022-10-13T10:40:44;100843.56;;;13.41;100.00
13348;BME280;6743;49.934;9.138;2022-10-13T10:43:38;100858.38;;;13.44;100.00
13348;BME280;6743;49.934;9.138;2022-10-13T10:46:14;100862.88;;;13.43;100.00
13348;BME280;6743;49.934;9.138;2022-10-13T10:48:43;100847.25;;;13.40;100.00
13348;BME280;6743;49.934;9.138;2022-10-13T10:51:10;100851.06;;;13.37;100.00
13348;BME280;6743;49.934;9.138;2022-10-13T10:53:39;100840.41;;;13.37;100.00
13348;BME280;6743;49.934;9.138;2022-10-13T10:56:16;100826.25;;;13.37;100.00
13348;BME280;6743;49.934;9.138;2022-10-13T10:58:50;100836.75;;;13.38;100.00
13348;BME280;6743;49.934;9.138;2022-10-13T11:01:26;100840.25;;;13.39;100.00
13348;BME280;6743;49.934;9.138;2022-10-13T11:03:58;100833.06;;;13.39;100.00
13348;BME280;6743;49.934;9.138;2022-10-13T11:06:34;100826.91;;;13.39;100.00
13348;BME280;6743;49.934;9.138;2022-10-13T11:09:00;100827.91;;;13.38;100.00
13348;BME280;6743;49.934;9.138;2022-10-13T11:11:38;100819.75;;;13.39;100.00
13348;BME280;6743;49.934;9.138;2022-10-13T11:14:35;100813.22;;;13.42;100.00
13348;BME280;6743;49.934;9.138;2022-10-13T11:17:27;100807.75;;;13.44;100.00
13348;BME280;6743;49.934;9.138;2022-10-13T11:19:53;100811.91;;;13.46;100.00
13348;BME280;6743;49.934;9.138;2022-10-13T11:22:22;100797.75;;;13.46;100.00
13348;BME280;6743;49.934;9.138;2022-10-13T11:24:54;100792.91;;;13.49;100.00
13348;BME280;6743;49.934;9.138;2022-10-13T11:30:38;100799.22;;;13.56;100.00
13348;BME280;6743;49.934;9.138;2022-10-13T11:33:32;100789.03;;;13.60;100.00
13348;BME280;6743;49.934;9.138;2022-10-13T11:36:47;100791.34;;;13.63;100.00
13348;BME280;6743;49.934;9.138;2022-10-13T11:39:41;100788.53;;;13.64;100.00
13348;BME280;6743;49.934;9.138;2022-10-13T11:45:17;100786.69;;;13.65;100.00
13348;BME280;6743;49.934;9.138;2022-10-13T11:51:21;100762.84;;;13.63;100.00
13348;BME280;6743;49.934;9.138;2022-10-13T11:53:56;100744.41;;;13.62;100.00
13348;BME280;6743;49.934;9.138;2022-10-13T11:56:32;100737.03;;;13.64;100.00
13348;BME280;6743;49.934;9.138;2022-10-13T11:58:59;100727.38;;;13.63;100.00
13348;BME280;6743;49.934;9.138;2022-10-13T12:01:25;100722.22;;;13.61;100.00
13348;BME280;6743;49.934;9.138;2022-10-13T12:03:51;100723.41;;;13.59;100.00
13348;BME280;6743;49.934;9.138;2022-10-13T12:06:30;100721.72;;;13.58;100.00
13348;BME280;6743;49.934;9.138;2022-10-13T12:09:00;100710.25;;;13.57;100.00
13348;BME280;6743;49.934;9.138;2022-10-13T12:11:29;100712.91;;;13.57;100.00
13348;BME280;6743;49.934;9.138;2022-10-13T12:13:56;100712.25;;;13.55;100.00
13348;BME280;6743;49.934;9.138;2022-10-13T12:16:22;100700.78;;;13.55;100.00
13348;BME280;6743;49.934;9.138;2022-10-13T12:18:49;100701.41;;;13.57;100.00
13348;BME280;6743;49.934;9.138;2022-10-13T12:21:18;100699.25;;;13.60;100.00
13348;BME280;6743;49.934;9.138;2022-10-13T12:23:46;100705.22;;;13.62;100.00
13348;BME280;6743;49.934;9.138;2022-10-13T12:26:15;100700.38;;;13.66;100.00
13348;BME280;6743;49.934;9.138;2022-10-13T12:28:49;100700.38;;;13.66;100.00
13348;BME280;6743;49.934;9.138;2022-10-13T12:31:18;100695.03;;;13.66;100.00
13348;BME280;6743;49.934;9.138;2022-10-13T12:33:52;100694.03;;;13.67;100.00
13348;BME280;6743;49.934;9.138;2022-10-13T12:36:19;100694.03;;;13.67;100.00
13348;BME280;6743;49.934;9.138;2022-10-13T12:38:48;100694.50;;;13.70;100.00
13348;BME280;6743;49.934;9.138;2022-10-13T12:41:16;100694.19;;;13.73;100.00
13348;BME280;6743;49.934;9.138;2022-10-13T12:43:44;100679.84;;;13.74;100.00
13348;BME280;6743;49.934;9.138;2022-10-13T12:46:10;100684.81;;;13.77;100.00
13348;BME280;6743;49.934;9.138;2022-10-13T12:48:36;100677.31;;;13.81;100.00
13348;BME280;6743;49.934;9.138;2022-10-13T12:51:13;100674.09;;;13.86;100.00
13348;BME280;6743;49.934;9.138;2022-10-13T12:53:40;100676.22;;;13.90;100.00
13348;BME280;6743;49.934;9.138;2022-10-13T12:56:06;100665.06;;;13.95;100.00
13348;BME280;6743;49.934;9.138;2022-10-13T12:58:42;100669.50;;;14.02;100.00
13348;BME280;6743;49.934;9.138;2022-10-13T13:01:24;100670.63;;;14.08;100.00
13348;BME280;6743;49.934;9.138;2022-10-13T13:03:54;100671.56;;;14.15;100.00
13348;BME280;6743;49.934;9.138;2022-10-13T13:06:26;100670.19;;;14.19;100.00
13348;BME280;6743;49.934;9.138;2022-10-13T13:09:24;100674.47;;;14.28;100.00